sensor_id;sensor_type;location;lat;lon;timestamp;pressure;altitude;pressure_sealevel;temperature;humidity
33153;BME280;19509;43.862;26.176;2023-04-01T00:01:19;99866.00;;;7.03;80.39
33153;BME280;19509;43.862;26.176;2023-04-01T00:03:45;99868.25;;;7.06;80.59
33153;BME280;19509;43.862;26.176;2023-04-01T00:06:15;99861.25;;;6.99;79.84
33153;BME280;19509;43.862;26.176;2023-04-01T00:08:42;99868.44;;;6.92;80.12
33153;BME280;19509;43.862;26.176;2023-04-01T00:11:08;99863.13;;;6.98;79.00
33153;BME280;19509;43.862;26.176;2023-04-01T00:13:33;99861.66;;;6.89;78.31
33153;BME280;19509;43.862;26.176;2023-04-01T00:15:59;99847.66;;;6.74;79.22
33153;BME280;19509;43.862;26.176;2023-04-01T00:18:26;99844.59;;;6.83;79.43
33153;BME280;19509;43.862;26.176;2023-04-01T00:20:52;99837.59;;;6.89;79.41
33153;BME280;19509;43.862;26.176;2023-04-01T00:23:18;99825.25;;;6.88;80.03
33153;BME280;19509;43.862;26.176;2023-04-01T00:25:45;99830.59;;;6.81;80.35
33153;BME280;19509;43.862;26.176;2023-04-01T00:28:14;99829.75;;;6.74;81.33
33153;BME280;19509;43.862;26.176;2023-04-01T00:30:39;99828.72;;;6.75;81.57
33153;BME280;19509;43.862;26.176;2023-04-01T00:33:05;99837.78;;;6.68;81.60
33153;BME280;19509;43.862;26.176;2023-04-01T00:35:30;99835.94;;;6.75;80.56
33153;BME280;19509;43.862;26.176;2023-04-01T00:37:57;99825.47;;;6.80;80.77
33153;BME280;19509;43.862;26.176;2023-04-01T00:40:44;99825.66;;;6.85;80.71
33153;BME280;19509;43.862;26.176;2023-04-01T00:43:19;99813.50;;;6.82;81.00
33153;BME280;19509;43.862;26.176;2023-04-01T00:45:47;99807.94;;;6.64;80.73
33153;BME280;19509;43.862;26.176;2023-04-01T00:48:19;99820.22;;;6.45;81.25
33153;BME280;19509;43.862;26.176;2023-04-01T00:50:49;99815.09;;;6.44;81.10
33153;BME280;19509;43.862;26.176;2023-04-01T00:53:17;99810.56;;;6.44;81.48
33153;BME280;19509;43.862;26.176;2023-04-01T00:55:50;99802.13;;;6.34;82.05
33153;BME280;19509;43.862;26.176;2023-04-01T00:58:18;99782.81;;;6.32;82.15
33153;BME280;19509;43.862;26.176;2023-04-01T01:00:47;99787.31;;;6.38;82.75
33153;BME280;19509;43.862;26.176;2023-04-01T01:03:14;99781.38;;;6.29;82.80
33153;BME280;19509;43.862;26.176;2023-04-01T01:11:10;99776.47;;;6.46;81.84
33153;BME280;19509;43.862;26.176;2023-04-01T01:14:08;99769.25;;;6.47;81.84
33153;BME280;19509;43.862;26.176;2023-04-01T01:16:36;99774.59;;;6.40;82.25
33153;BME280;19509;43.862;26.176;2023-04-01T01:31:02;99765.09;;;6.24;83.39
33153;BME280;19509;43.862;26.176;2023-04-01T01:36:19;99750.75;;;6.32;83.37
33153;BME280;19509;43.862;26.176;2023-04-01T01:38:47;99757.09;;;6.37;83.64
33153;BME280;19509;43.862;26.176;2023-04-01T01:41:16;99755.25;;;6.38;83.60
33153;BME280;19509;43.862;26.176;2023-04-01T01:43:45;99750.53;;;6.33;83.79
33153;BME280;19509;43.862;26.176;2023-04-01T01:46:15;99748.50;;;6.35;83.55
33153;BME280;19509;43.862;26.176;2023-04-01T01:48:42;99734.91;;;6.44;83.14
33153;BME280;19509;43.862;26.176;2023-04-01T01:51:09;99729.16;;;6.40;81.82
33153;BME280;19509;43.862;26.176;2023-04-01T01:53:35;99726.47;;;6.20;80.83
33153;BME280;19509;43.862;26.176;2023-04-01T01:56:00;99729.72;;;6.09;81.04
33153;BME280;19509;43.862;26.176;2023-04-01T01:58:45;99723.16;;;6.05;82.11
33153;BME280;19509;43.862;26.176;2023-04-01T02:01:19;99727.03;;;5.96;82.58
33153;BME280;19509;43.862;26.176;2023-04-01T02:03:48;99734.34;;;5.87;82.92
33153;BME280;19509;43.862;26.176;2023-04-01T02:06:18;99728.59;;;5.83;83.57
33153;BME280;19509;43.862;26.176;2023-04-01T02:09:05;99716.44;;;5.81;83.46
33153;BME280;19509;43.862;26.176;2023-04-01T02:11:52;99721.38;;;5.77;83.56
33153;BME280;19509;43.862;26.176;2023-04-01T02:14:27;99718.06;;;5.68;83.46
33153;BME280;19509;43.862;26.176;2023-04-01T02:19:20;99698.19;;;5.30;81.88
33153;BME280;19509;43.862;26.176;2023-04-01T02:21:55;99702.00;;;5.14;80.57
33153;BME280;19509;43.862;26.176;2023-04-01T02:24:23;99698.16;;;4.88;81.99
33153;BME280;19509;43.862;26.176;2023-04-01T02:26:51;99687.44;;;4.82;83.76
33153;BME280;19509;43.862;26.176;2023-04-01T02:29:19;99682.41;;;4.93;83.88
33153;BME280;19509;43.862;26.176;2023-04-01T02:31:46;99684.69;;;4.96;84.43
33153;BME280;19509;43.862;26.176;2023-04-01T02:34:11;99681.19;;;4.96;84.25
33153;BME280;19509;43.862;26.176;2023-04-01T02:36:38;99671.09;;;4.91;83.27
33153;BME280;19509;43.862;26.176;2023-04-01T02:39:05;99675.22;;;4.94;84.29
33153;BME280;19509;43.862;26.176;2023-04-01T02:41:30;99665.41;;;5.01;85.16
33153;BME280;19509;43.862;26.176;2023-04-01T02:43:57;99662.53;;;4.96;84.95
33153;BME280;19509;43.862;26.176;2023-04-01T02:46:24;99670.53;;;4.96;84.71
33153;BME280;19509;43.862;26.176;2023-04-01T02:48:49;99655.53;;;4.95;84.34
33153;BME280;19509;43.862;26.176;2023-04-01T02:51:15;99653.81;;;4.81;83.38
33153;BME280;19509;43.862;26.176;2023-04-01T02:53:41;99658.38;;;4.87;83.36
33153;BME280;19509;43.862;26.176;2023-04-01T02:56:06;99657.97;;;4.90;84.18
33153;BME280;19509;43.862;26.176;2023-04-01T02:58:32;99647.16;;;4.98;85.11
33153;BME280;19509;43.862;26.176;2023-04-01T03:00:57;99645.78;;;5.15;84.82
33153;BME280;19509;43.862;26.176;2023-04-01T03:03:23;99644.41;;;5.26;84.03
33153;BME280;19509;43.862;26.176;2023-04-01T03:05:48;99650.97;;;5.24;83.28
33153;BME280;19509;43.862;26.176;2023-04-01T03:08:14;99652.16;;;5.14;83.63
33153;BME280;19509;43.862;26.176;2023-04-01T03:10:39;99645.75;;;5.09;84.23
33153;BME280;19509;43.862;26.176;2023-04-01T03:13:05;99641.09;;;5.17;84.43
33153;BME280;19509;43.862;26.176;2023-04-01T03:15:31;99640.91;;;5.26;84.74
33153;BME280;19509;43.862;26.176;2023-04-01T03:17:57;99637.69;;;5.37;84.98
33153;BME280;19509;43.862;26.176;2023-04-01T03:20:22;99624.59;;;5.49;85.33
33153;BME280;19509;43.862;26.176;2023-04-01T03:22:48;99628.31;;;5.61;84.63
33153;BME280;19509;43.862;26.176;2023-04-01T03:25:13;99630.41;;;5.72;84.33
33153;BME280;19509;43.862;26.176;2023-04-01T03:27:39;99635.53;;;5.80;84.10
33153;BME280;19509;43.862;26.176;2023-04-01T03:30:06;99626.72;;;5.86;83.52
33153;BME280;19509;43.862;26.176;2023-04-01T03:32:32;99620.13;;;5.76;83.90
33153;BME280;19509;43.862;26.176;2023-04-01T03:34:58;99627.75;;;5.79;84.28
33153;BME280;19509;43.862;26.176;2023-04-01T03:37:23;99630.22;;;5.87;83.66
33153;BME280;19509;43.862;26.176;2023-04-01T03:39:50;99621.78;;;5.90;83.57
33153;BME280;19509;43.862;26.176;2023-04-01T03:42:15;99629.63;;;5.91;83.33
33153;BME280;19509;43.862;26.176;2023-04-01T03:44:41;99621.78;;;5.83;83.68
33153;BME280;19509;43.862;26.176;2023-04-01T03:47:06;99615.63;;;5.83;83.72
33153;BME280;19509;43.862;26.176;2023-04-01T03:49:34;99624.06;;;5.86;84.18
33153;BME280;19509;43.862;26.176;2023-04-01T03:51:59;99627.41;;;6.02;83.96
33153;BME280;19509;43.862;26.176;2023-04-01T03:54:25;99627.19;;;6.03;83.62
33153;BME280;19509;43.862;26.176;2023-04-01T03:56:51;99622.88;;;6.09;83.44
33153;BME280;19509;43.862;26.176;2023-04-01T03:59:16;99629.06;;;6.23;83.09
33153;BME280;19509;43.862;26.176;2023-04-01T04:01:42;99620.22;;;6.42;82.54
33153;BME280;19509;43.862;26.176;2023-04-01T04:04:07;99629.47;;;6.53;82.25
33153;BME280;19509;43.862;26.176;2023-04-01T04:06:35;99627.59;;;6.60;81.81
33153;BME280;19509;43.862;26.176;2023-04-01T04:09:01;99628.41;;;6.67;81.41
33153;BME280;19509;43.862;26.176;2023-04-01T04:11:27;99626.94;;;6.71;80.33
33153;BME280;19509;43.862;26.176;2023-04-01T04:13:52;99621.44;;;6.53;80.83
33153;BME280;19509;43.862;26.176;2023-04-01T04:16:18;99620.00;;;6.44;80.87
33153;BME280;19509;43.862;26.176;2023-04-01T04:18:44;99616.72;;;6.22;81.39
33153;BME280;19509;43.862;26.176;2023-04-01T04:21:14;99607.69;;;6.23;81.30
33153;BME280;19509;43.862;26.176;2023-04-01T04:23:41;99606.44;;;6.25;81.90
33153;BME280;19509;43.862;26.176;2023-04-01T04:26:08;99605.81;;;6.30;81.42
33153;BME280;19509;43.862;26.176;2023-04-01T04:28:34;99594.72;;;6.39;81.67
33153;BME280;19509;43.862;26.176;2023-04-01T04:31:01;99604.13;;;6.62;81.94
33153;BME280;19509;43.862;26.176;2023-04-01T04:33:27;99585.78;;;6.85;81.19
33153;BME280;19509;43.862;26.176;2023-04-01T04:35:55;99596.44;;;6.99;81.13
33153;BME280;19509;43.862;26.176;2023-04-01T04:38:21;99603.34;;;7.20;80.36
33153;BME280;19509;43.862;26.176;2023-04-01T04:40:47;99596.91;;;7.34;79.35
33153;BME280;19509;43.862;26.176;2023-04-01T04:43:14;99589.63;;;7.48;79.19
33153;BME280;19509;43.862;26.176;2023-04-01T04:45:40;99594.03;;;7.67;78.90
33153;BME280;19509;43.862;26.176;2023-04-01T04:48:08;99594.56;;;7.82;77.93
33153;BME280;19509;43.862;26.176;2023-04-01T04:50:34;99608.91;;;7.95;77.72
33153;BME280;19509;43.862;26.176;2023-04-01T04:52:59;99595.00;;;8.04;77.10
33153;BME280;19509;43.862;26.176;2023-04-01T04:55:25;99608.03;;;8.01;78.16
33153;BME280;19509;43.862;26.176;2023-04-01T04:57:51;99600.75;;;8.08;77.58
33153;BME280;19509;43.862;26.176;2023-04-01T05:00:17;99597.66;;;8.11;77.55
33153;BME280;19509;43.862;26.176;2023-04-01T05:02:43;99594.66;;;8.26;76.74
33153;BME280;19509;43.862;26.176;2023-04-01T05:05:08;99593.56;;;8.34;77.08
33153;BME280;19509;43.862;26.176;2023-04-01T05:07:34;99587.13;;;8.35;77.31
33153;BME280;19509;43.862;26.176;2023-04-01T05:09:59;99585.88;;;8.37;76.37
33153;BME280;19509;43.862;26.176;2023-04-01T05:12:25;99586.91;;;8.43;77.19
33153;BME280;19509;43.862;26.176;2023-04-01T05:14:51;99585.84;;;8.44;76.90
33153;BME280;19509;43.862;26.176;2023-04-01T05:17:16;99580.06;;;8.47;77.26
33153;BME280;19509;43.862;26.176;2023-04-01T05:19:42;99574.03;;;8.51;77.36
33153;BME280;19509;43.862;26.176;2023-04-01T05:22:07;99584.47;;;8.60;77.55
33153;BME280;19509;43.862;26.176;2023-04-01T05:24:36;99577.69;;;8.75;77.44
33153;BME280;19509;43.862;26.176;2023-04-01T05:27:01;99577.63;;;8.82;77.41
33153;BME280;19509;43.862;26.176;2023-04-01T05:29:27;99577.84;;;8.99;76.61
33153;BME280;19509;43.862;26.176;2023-04-01T05:31:53;99577.75;;;9.06;76.93
33153;BME280;19509;43.862;26.176;2023-04-01T05:34:18;99572.47;;;9.17;76.42
33153;BME280;19509;43.862;26.176;2023-04-01T05:36:44;99571.78;;;9.22;76.50
33153;BME280;19509;43.862;26.176;2023-04-01T05:39:10;99581.16;;;9.31;75.81
33153;BME280;19509;43.862;26.176;2023-04-01T05:41:36;99574.94;;;9.49;75.30
33153;BME280;19509;43.862;26.176;2023-04-01T05:44:01;99568.31;;;9.63;75.10
33153;BME280;19509;43.862;26.176;2023-04-01T05:46:27;99561.47;;;9.79;74.89
33153;BME280;19509;43.862;26.176;2023-04-01T05:48:53;99563.88;;;9.99;74.56
33153;BME280;19509;43.862;26.176;2023-04-01T05:51:18;99557.09;;;10.20;73.37
33153;BME280;19509;43.862;26.176;2023-04-01T05:53:44;99557.72;;;10.34;73.50
33153;BME280;19509;43.862;26.176;2023-04-01T05:56:10;99560.19;;;10.47;73.08
33153;BME280;19509;43.862;26.176;2023-04-01T05:58:36;99561.22;;;10.58;72.56
33153;BME280;19509;43.862;26.176;2023-04-01T06:01:03;99563.19;;;10.74;72.67
33153;BME280;19509;43.862;26.176;2023-04-01T06:03:28;99561.63;;;10.90;72.37
33153;BME280;19509;43.862;26.176;2023-04-01T06:05:54;99560.41;;;11.09;72.07
33153;BME280;19509;43.862;26.176;2023-04-01T06:08:20;99557.31;;;11.29;71.47
33153;BME280;19509;43.862;26.176;2023-04-01T06:21:52;99535.84;;;12.47;68.81
33153;BME280;19509;43.862;26.176;2023-04-01T06:40:35;99531.97;;;13.04;64.98
33153;BME280;19509;43.862;26.176;2023-04-01T06:53:55;99535.53;;;13.05;65.74
33153;BME280;19509;43.862;26.176;2023-04-01T06:56:28;99544.78;;;13.14;65.38
33153;BME280;19509;43.862;26.176;2023-04-01T06:59:22;99545.75;;;13.24;64.48
33153;BME280;19509;43.862;26.176;2023-04-01T07:04:38;99542.41;;;13.17;65.79
33153;BME280;19509;43.862;26.176;2023-04-01T07:07:14;99536.25;;;13.22;66.28
33153;BME280;19509;43.862;26.176;2023-04-01T07:09:48;99540.41;;;13.30;66.46
33153;BME280;19509;43.862;26.176;2023-04-01T07:12:22;99536.63;;;13.31;66.08
33153;BME280;19509;43.862;26.176;2023-04-01T07:14:54;99535.63;;;13.37;64.71
33153;BME280;19509;43.862;26.176;2023-04-01T07:17:24;99545.72;;;13.46;64.56
33153;BME280;19509;43.862;26.176;2023-04-01T07:20:02;99532.31;;;13.57;64.16
33153;BME280;19509;43.862;26.176;2023-04-01T07:22:51;99533.94;;;13.58;64.20
33153;BME280;19509;43.862;26.176;2023-04-01T07:25:20;99535.22;;;13.50;65.02
33153;BME280;19509;43.862;26.176;2023-04-01T07:27:46;99535.72;;;13.47;64.96
33153;BME280;19509;43.862;26.176;2023-04-01T07:30:20;99534.94;;;13.52;64.51
33153;BME280;19509;43.862;26.176;2023-04-01T07:35:42;99536.84;;;13.51;65.31
33153;BME280;19509;43.862;26.176;2023-04-01T07:41:20;99536.81;;;13.73;65.94
33153;BME280;19509;43.862;26.176;2023-04-01T07:44:14;99543.91;;;13.79;65.82
33153;BME280;19509;43.862;26.176;2023-04-01T07:49:25;99549.50;;;14.05;64.19
33153;BME280;19509;43.862;26.176;2023-04-01T07:52:01;99553.09;;;14.15;64.71
33153;BME280;19509;43.862;26.176;2023-04-01T07:54:49;99555.66;;;14.32;63.77
33153;BME280;19509;43.862;26.176;2023-04-01T07:57:33;99549.88;;;14.51;62.64
33153;BME280;19509;43.862;26.176;2023-04-01T08:05:22;99552.91;;;15.27;60.46
33153;BME280;19509;43.862;26.176;2023-04-01T08:10:54;99539.25;;;15.80;56.88
33153;BME280;19509;43.862;26.176;2023-04-01T08:13:25;99523.75;;;15.85;55.70
33153;BME280;19509;43.862;26.176;2023-04-01T08:21:30;99528.38;;;16.11;55.41
33153;BME280;19509;43.862;26.176;2023-04-01T08:23:58;99519.16;;;16.12;54.58
33153;BME280;19509;43.862;26.176;2023-04-01T08:26:42;99516.72;;;15.95;54.00
33153;BME280;19509;43.862;26.176;2023-04-01T08:29:19;99508.28;;;15.86;53.72
33153;BME280;19509;43.862;26.176;2023-04-01T08:31:59;99508.28;;;15.76;53.56
33153;BME280;19509;43.862;26.176;2023-04-01T08:35:54;99516.72;;;15.74;54.40
33153;BME280;19509;43.862;26.176;2023-04-01T08:37:48;99525.63;;;15.59;54.74
33153;BME280;19509;43.862;26.176;2023-04-01T08:40:31;99518.00;;;15.61;54.15
33153;BME280;19509;43.862;26.176;2023-04-01T08:46:02;99523.94;;;15.33;54.18
33153;BME280;19509;43.862;26.176;2023-04-01T08:54:43;99513.63;;;15.30;54.67
33153;BME280;19509;43.862;26.176;2023-04-01T09:08:33;99505.31;;;15.88;54.38
33153;BME280;19509;43.862;26.176;2023-04-01T09:21:36;99488.78;;;15.84;54.29
33153;BME280;19509;43.862;26.176;2023-04-01T09:26:58;99491.22;;;15.70;53.31
33153;BME280;19509;43.862;26.176;2023-04-01T09:29:53;99491.44;;;15.58;52.26
33153;BME280;19509;43.862;26.176;2023-04-01T09:38:06;99490.94;;;15.87;52.57
33153;BME280;19509;43.862;26.176;2023-04-01T09:43:26;99482.16;;;16.51;52.65
33153;BME280;19509;43.862;26.176;2023-04-01T09:57:51;99492.03;;;15.91;54.94
33153;BME280;19509;43.862;26.176;2023-04-01T10:15:06;99456.94;;;16.36;55.11
33153;BME280;19509;43.862;26.176;2023-04-01T10:24:00;99462.47;;;16.00;53.96
33153;BME280;19509;43.862;26.176;2023-04-01T10:56:00;99430.97;;;16.04;53.23
33153;BME280;19509;43.862;26.176;2023-04-01T11:41:10;99416.03;;;15.14;56.84
33153;BME280;19509;43.862;26.176;2023-04-01T11:49:43;99396.28;;;15.80;54.99
33153;BME280;19509;43.862;26.176;2023-04-01T12:03:21;99376.44;;;16.00;56.55
33153;BME280;19509;43.862;26.176;2023-04-01T12:06:02;99370.22;;;15.38;56.23
33153;BME280;19509;43.862;26.176;2023-04-01T12:08:50;99370.19;;;16.00;55.21
33153;BME280;19509;43.862;26.176;2023-04-01T12:14:13;99372.06;;;16.74;55.38
33153;BME280;19509;43.862;26.176;2023-04-01T12:16:59;99366.34;;;16.71;54.35
33153;BME280;19509;43.862;26.176;2023-04-01T12:19:46;99367.59;;;16.39;54.67
33153;BME280;19509;43.862;26.176;2023-04-01T12:22:21;99353.22;;;16.33;55.58
33153;BME280;19509;43.862;26.176;2023-04-01T12:25:01;99357.34;;;16.26;54.65
33153;BME280;19509;43.862;26.176;2023-04-01T12:33:37;99364.31;;;16.47;55.20
33153;BME280;19509;43.862;26.176;2023-04-01T12:45:17;99357.63;;;16.19;55.26
33153;BME280;19509;43.862;26.176;2023-04-01T12:56:59;99360.19;;;15.80;56.46
33153;BME280;19509;43.862;26.176;2023-04-01T13:18:42;99350.97;;;14.89;61.85
33153;BME280;19509;43.862;26.176;2023-04-01T13:21:25;99348.25;;;14.84;60.01
33153;BME280;19509;43.862;26.176;2023-04-01T13:27:12;99358.84;;;15.11;59.93
33153;BME280;19509;43.862;26.176;2023-04-01T13:38:08;99347.44;;;14.83;61.03
33153;BME280;19509;43.862;26.176;2023-04-01T13:43:25;99341.25;;;14.98;59.77
33153;BME280;19509;43.862;26.176;2023-04-01T13:54:00;99337.97;;;15.06;59.56
33153;BME280;19509;43.862;26.176;2023-04-01T13:56:38;99339.06;;;14.95;60.17
33153;BME280;19509;43.862;26.176;2023-04-01T14:07:58;99342.56;;;14.90;63.60
33153;BME280;19509;43.862;26.176;2023-04-01T14:10:43;99342.50;;;14.60;63.71
33153;BME280;19509;43.862;26.176;2023-04-01T14:36:41;99331.50;;;13.61;70.77
33153;BME280;19509;43.862;26.176;2023-04-01T14:42:15;99334.47;;;13.60;71.86
33153;BME280;19509;43.862;26.176;2023-04-01T14:50:16;99312.34;;;13.25;75.59
33153;BME280;19509;43.862;26.176;2023-04-01T14:52:57;99314.38;;;13.13;77.30
33153;BME280;19509;43.862;26.176;2023-04-01T14:55:34;99301.50;;;12.88;80.33
33153;BME280;19509;43.862;26.176;2023-04-01T14:58:10;99307.31;;;12.75;81.36
33153;BME280;19509;43.862;26.176;2023-04-01T15:14:58;99273.09;;;12.81;80.04
33153;BME280;19509;43.862;26.176;2023-04-01T15:17:55;99272.63;;;12.94;80.13
33153;BME280;19509;43.862;26.176;2023-04-01T15:20:56;99275.38;;;12.99;78.57
33153;BME280;19509;43.862;26.176;2023-04-01T15:26:13;99272.16;;;13.02;78.12
33153;BME280;19509;43.862;26.176;2023-04-01T15:37:22;99272.69;;;12.99;78.70
33153;BME280;19509;43.862;26.176;2023-04-01T15:42:50;99281.56;;;12.94;78.16
33153;BME280;19509;43.862;26.176;2023-04-01T15:48:01;99275.25;;;12.84;77.40
33153;BME280;19509;43.862;26.176;2023-04-01T15:50:42;99285.94;;;12.73;76.69
33153;BME280;19509;43.862;26.176;2023-04-01T15:55:55;99290.41;;;12.58;77.14
33153;BME280;19509;43.862;26.176;2023-04-01T15:59:01;99301.72;;;12.54;77.28
33153;BME280;19509;43.862;26.176;2023-04-01T16:01:45;99304.53;;;12.43;77.46
33153;BME280;19509;43.862;26.176;2023-04-01T16:07:11;99303.63;;;12.32;77.98
33153;BME280;19509;43.862;26.176;2023-04-01T16:12:18;99308.59;;;12.40;77.70
33153;BME280;19509;43.862;26.176;2023-04-01T16:20:23;99349.47;;;12.32;78.93
33153;BME280;19509;43.862;26.176;2023-04-01T16:23:16;99363.97;;;12.26;79.22
33153;BME280;19509;43.862;26.176;2023-04-01T16:25:55;99367.75;;;12.25;80.02
33153;BME280;19509;43.862;26.176;2023-04-01T16:28:31;99375.50;;;12.21;80.95
33153;BME280;19509;43.862;26.176;2023-04-01T16:34:03;99399.44;;;12.13;80.81
33153;BME280;19509;43.862;26.176;2023-04-01T16:36:47;99410.75;;;12.15;81.31
33153;BME280;19509;43.862;26.176;2023-04-01T16:42:26;99410.13;;;12.07;83.00
33153;BME280;19509;43.862;26.176;2023-04-01T16:47:58;99414.56;;;11.97;84.56
33153;BME280;19509;43.862;26.176;2023-04-01T16:50:56;99416.38;;;11.91;86.10
33153;BME280;19509;43.862;26.176;2023-04-01T16:56:23;99412.28;;;11.89;87.40
33153;BME280;19509;43.862;26.176;2023-04-01T16:59:00;99404.69;;;11.69;88.75
33153;BME280;19509;43.862;26.176;2023-04-01T17:01:32;99404.22;;;11.55;90.02
33153;BME280;19509;43.862;26.176;2023-04-01T17:04:29;99397.44;;;11.52;90.59
33153;BME280;19509;43.862;26.176;2023-04-01T17:10:04;99401.59;;;11.60;90.76
33153;BME280;19509;43.862;26.176;2023-04-01T17:20:31;99373.34;;;11.12;94.43
33153;BME280;19509;43.862;26.176;2023-04-01T17:23:53;99378.09;;;11.22;94.77
33153;BME280;19509;43.862;26.176;2023-04-01T17:28:56;99378.44;;;10.97;95.17
33153;BME280;19509;43.862;26.176;2023-04-01T17:34:26;99368.91;;;11.06;95.78
33153;BME280;19509;43.862;26.176;2023-04-01T17:39:57;99369.66;;;11.01;95.65
33153;BME280;19509;43.862;26.176;2023-04-01T17:47:55;99368.53;;;10.97;95.39
33153;BME280;19509;43.862;26.176;2023-04-01T17:58:20;99369.97;;;10.59;99.40
33153;BME280;19509;43.862;26.176;2023-04-01T18:06:34;99374.72;;;10.69;97.96
33153;BME280;19509;43.862;26.176;2023-04-01T18:18:05;99368.59;;;10.57;97.14
33153;BME280;19509;43.862;26.176;2023-04-01T18:20:52;99359.94;;;10.55;97.19
33153;BME280;19509;43.862;26.176;2023-04-01T18:23:24;99372.78;;;10.53;97.23
33153;BME280;19509;43.862;26.176;2023-04-01T18:26:02;99369.97;;;10.59;96.77
33153;BME280;19509;43.862;26.176;2023-04-01T18:28:49;99375.25;;;10.54;96.64
33153;BME280;19509;43.862;26.176;2023-04-01T18:31:20;99372.22;;;10.51;96.48
33153;BME280;19509;43.862;26.176;2023-04-01T18:34:02;99371.06;;;10.47;95.85
33153;BME280;19509;43.862;26.176;2023-04-01T18:36:43;99367.72;;;10.39;96.35
33153;BME280;19509;43.862;26.176;2023-04-01T18:39:21;99360.00;;;10.31;95.81
33153;BME280;19509;43.862;26.176;2023-04-01T18:41:59;99371.56;;;10.32;95.52
33153;BME280;19509;43.862;26.176;2023-04-01T18:44:36;99385.38;;;10.24;95.50
33153;BME280;19509;43.862;26.176;2023-04-01T18:47:41;99395.44;;;10.16;95.45
33153;BME280;19509;43.862;26.176;2023-04-01T18:55:59;99408.31;;;10.03;95.39
33153;BME280;19509;43.862;26.176;2023-04-01T18:58:36;99411.00;;;10.03;96.02
33153;BME280;19509;43.862;26.176;2023-04-01T19:01:26;99418.00;;;10.04;96.30
33153;BME280;19509;43.862;26.176;2023-04-01T19:04:05;99421.75;;;10.03;96.11
33153;BME280;19509;43.862;26.176;2023-04-01T19:06:48;99419.19;;;9.96;96.01
33153;BME280;19509;43.862;26.176;2023-04-01T19:09:29;99423.16;;;9.93;96.13
33153;BME280;19509;43.862;26.176;2023-04-01T19:14:55;99434.25;;;9.97;96.09
33153;BME280;19509;43.862;26.176;2023-04-01T19:23:34;99448.84;;;10.01;96.01
33153;BME280;19509;43.862;26.176;2023-04-01T19:26:00;99466.63;;;10.02;96.31
33153;BME280;19509;43.862;26.176;2023-04-01T19:28:58;99470.50;;;10.06;96.48
33153;BME280;19509;43.862;26.176;2023-04-01T19:32:21;99472.81;;;10.03;97.05
33153;BME280;19509;43.862;26.176;2023-04-01T19:34:57;99476.91;;;10.05;97.06
33153;BME280;19509;43.862;26.176;2023-04-01T19:37:36;99476.44;;;10.08;97.09
33153;BME280;19509;43.862;26.176;2023-04-01T19:45:44;99469.91;;;10.16;96.77
33153;BME280;19509;43.862;26.176;2023-04-01T19:51:08;99477.72;;;10.17;96.91
33153;BME280;19509;43.862;26.176;2023-04-01T19:53:37;99484.25;;;10.22;97.16
33153;BME280;19509;43.862;26.176;2023-04-01T19:56:19;99477.59;;;10.24;97.28
33153;BME280;19509;43.862;26.176;2023-04-01T20:04:48;99474.56;;;10.32;96.77
33153;BME280;19509;43.862;26.176;2023-04-01T20:08:28;99468.16;;;10.33;96.65
33153;BME280;19509;43.862;26.176;2023-04-01T20:10:38;99475.28;;;10.39;96.83
33153;BME280;19509;43.862;26.176;2023-04-01T20:13:46;99476.09;;;10.40;96.69
33153;BME280;19509;43.862;26.176;2023-04-01T20:16:15;99481.81;;;10.44;96.76
33153;BME280;19509;43.862;26.176;2023-04-01T20:18:59;99475.97;;;10.47;96.99
33153;BME280;19509;43.862;26.176;2023-04-01T20:21:43;99477.97;;;10.39;96.39
33153;BME280;19509;43.862;26.176;2023-04-01T20:24:17;99483.13;;;10.41;97.23
33153;BME280;19509;43.862;26.176;2023-04-01T20:27:15;99486.50;;;10.48;96.87
33153;BME280;19509;43.862;26.176;2023-04-01T20:29:56;99482.50;;;10.51;97.27
33153;BME280;19509;43.862;26.176;2023-04-01T20:38:02;99486.47;;;10.60;97.45
33153;BME280;19509;43.862;26.176;2023-04-01T20:56:46;99494.69;;;10.41;91.82
33153;BME280;19509;43.862;26.176;2023-04-01T21:16:41;99500.16;;;9.88;87.67
33153;BME280;19509;43.862;26.176;2023-04-01T21:24:44;99512.44;;;9.95;88.56
33153;BME280;19509;43.862;26.176;2023-04-01T22:00:38;99511.63;;;9.41;84.14
33153;BME280;19509;43.862;26.176;2023-04-01T22:08:32;99504.94;;;9.32;85.09
33153;BME280;19509;43.862;26.176;2023-04-01T22:13:36;99496.28;;;9.30;85.26
33153;BME280;19509;43.862;26.176;2023-04-01T22:19:22;99507.59;;;9.20;85.71
33153;BME280;19509;43.862;26.176;2023-04-01T22:30:42;99508.94;;;9.11;85.80
33153;BME280;19509;43.862;26.176;2023-04-01T22:33:45;99517.44;;;9.08;86.20
33153;BME280;19509;43.862;26.176;2023-04-01T22:39:31;99512.28;;;9.07;85.82
33153;BME280;19509;43.862;26.176;2023-04-01T22:42:25;99515.59;;;9.09;86.46
33153;BME280;19509;43.862;26.176;2023-04-01T22:50:26;99515.91;;;9.00;86.92
33153;BME280;19509;43.862;26.176;2023-04-01T22:53:25;99514.03;;;9.01;87.41
33153;BME280;19509;43.862;26.176;2023-04-01T22:55:57;99514.50;;;8.98;87.12
33153;BME280;19509;43.862;26.176;2023-04-01T22:58:31;99510.75;;;8.99;87.35
33153;BME280;19509;43.862;26.176;2023-04-01T23:01:16;99499.06;;;8.93;87.53
33153;BME280;19509;43.862;26.176;2023-04-01T23:03:48;99522.00;;;8.89;88.89
33153;BME280;19509;43.862;26.176;2023-04-01T23:06:43;99502.13;;;8.79;89.50
33153;BME280;19509;43.862;26.176;2023-04-01T23:09:25;99506.31;;;8.74;89.15
33153;BME280;19509;43.862;26.176;2023-04-01T23:12:04;99504.00;;;8.78;89.51
33153;BME280;19509;43.862;26.176;2023-04-01T23:14:55;99501.19;;;8.73;89.46
33153;BME280;19509;43.862;26.176;2023-04-01T23:20:31;99507.50;;;8.79;89.48
33153;BME280;19509;43.862;26.176;2023-04-01T23:26:03;99493.72;;;8.75;89.56
33153;BME280;19509;43.862;26.176;2023-04-01T23:28:46;99501.31;;;8.78;89.60
33153;BME280;19509;43.862;26.176;2023-04-01T23:31:34;99502.13;;;8.79;89.28
33153;BME280;19509;43.862;26.176;2023-04-01T23:34:04;99506.91;;;8.76;89.62